createdAt,value
2022-10-18T00:00:03.653Z,81.50
2022-10-18T00:02:31.477Z,81.60
2022-10-18T00:04:58.396Z,81.70
2022-10-18T00:07:25.164Z,81.70
2022-10-18T00:09:51.921Z,81.60
2022-10-18T00:12:18.826Z,81.50
2022-10-18T00:14:49.885Z,81.50
2022-10-18T00:17:16.683Z,81.40
2022-10-18T00:19:43.731Z,81.30
2022-10-18T00:22:10.511Z,81.20
2022-10-18T00:24:37.258Z,81.10
2022-10-18T00:27:04.227Z,81.00
2022-10-18T00:29:31.000Z,81.00
2022-10-18T00:31:57.801Z,81.10
2022-10-18T00:34:24.668Z,81.10
2022-10-18T00:36:51.439Z,81.20
2022-10-18T00:39:20.241Z,81.10
2022-10-18T00:41:48.038Z,81.00
2022-10-18T00:44:17.853Z,81.00
2022-10-18T00:46:47.177Z,80.90
2022-10-18T00:49:42.474Z,80.90
2022-10-18T00:52:15.305Z,81.00
2022-10-18T00:54:44.333Z,81.00
2022-10-18T00:57:12.649Z,80.90
2022-10-18T00:59:40.278Z,80.80
2022-10-18T01:02:07.960Z,80.90
2022-10-18T01:04:35.256Z,80.90
2022-10-18T01:07:14.053Z,81.00
2022-10-18T01:10:03.851Z,81.10
2022-10-18T01:12:56.670Z,81.20
2022-10-18T01:15:35.714Z,81.10
2022-10-18T01:18:25.201Z,81.00
2022-10-18T01:21:00.609Z,81.10
2022-10-18T01:23:46.304Z,81.20
2022-10-18T01:26:41.169Z,81.10
2022-10-18T01:29:41.691Z,81.00
2022-10-18T01:32:18.954Z,80.90
2022-10-18T01:34:50.190Z,81.10
2022-10-18T01:37:19.551Z,81.20
2022-10-18T01:39:48.005Z,81.20
2022-10-18T01:42:19.980Z,81.20
2022-10-18T01:44:48.157Z,81.00
2022-10-18T01:47:15.693Z,80.90
2022-10-18T01:49:42.620Z,80.80
2022-10-18T01:52:14.356Z,80.80
2022-10-18T01:54:45.065Z,80.80
2022-10-18T01:58:00.296Z,80.80
2022-10-18T02:00:42.476Z,80.90
2022-10-18T02:03:24.006Z,80.80
2022-10-18T02:06:14.277Z,80.90
2022-10-18T02:08:53.174Z,80.90
2022-10-18T02:11:20.375Z,80.90
2022-10-18T02:13:53.235Z,80.90
2022-10-18T02:16:28.005Z,80.90
2022-10-18T02:19:00.522Z,80.90
2022-10-18T02:21:29.533Z,81.00
2022-10-18T02:23:59.005Z,81.00
2022-10-18T02:26:26.101Z,81.20
2022-10-18T02:28:52.965Z,81.30
2022-10-18T02:31:20.393Z,81.30
2022-10-18T02:33:57.200Z,81.30
2022-10-18T02:36:27.024Z,81.30
2022-10-18T02:38:59.219Z,81.30
2022-10-18T02:41:27.231Z,81.40
2022-10-18T02:43:54.438Z,81.30
2022-10-18T02:46:21.636Z,81.20
2022-10-18T02:48:48.462Z,81.10
2022-10-18T02:51:15.641Z,81.00
2022-10-18T02:53:42.497Z,80.90
2022-10-18T02:56:09.582Z,80.90
2022-10-18T02:58:36.396Z,80.90
2022-10-18T03:01:03.183Z,80.90
2022-10-18T03:03:30.213Z,80.90
2022-10-18T03:05:57.035Z,80.90
2022-10-18T03:08:23.920Z,81.00
2022-10-18T03:10:50.659Z,81.00
2022-10-18T03:13:17.627Z,81.00
2022-10-18T03:15:44.537Z,81.40
2022-10-18T03:18:11.270Z,81.70
2022-10-18T03:20:38.067Z,81.60
2022-10-18T03:23:05.466Z,81.40
2022-10-18T03:25:32.250Z,81.30
2022-10-18T03:27:59.102Z,81.20
2022-10-18T03:30:25.952Z,81.10
2022-10-18T03:32:54.211Z,81.10
2022-10-18T03:35:21.065Z,81.10
2022-10-18T03:37:47.952Z,81.10
2022-10-18T03:40:14.836Z,81.20
2022-10-18T03:42:41.630Z,81.20
2022-10-18T03:45:09.025Z,81.10
2022-10-18T03:47:35.937Z,81.00
2022-10-18T03:50:02.956Z,81.10
2022-10-18T03:52:30.124Z,81.20
2022-10-18T03:54:57.166Z,81.20
2022-10-18T03:57:24.031Z,81.20
2022-10-18T03:59:50.921Z,81.00
2022-10-18T04:02:17.868Z,81.00
2022-10-18T04:04:44.675Z,80.90
2022-10-18T04:07:11.506Z,80.90
2022-10-18T04:09:38.385Z,80.80
2022-10-18T04:12:05.341Z,81.00
2022-10-18T04:14:32.237Z,81.00
2022-10-18T04:16:58.985Z,81.10
2022-10-18T04:19:25.704Z,81.10
2022-10-18T04:21:52.415Z,81.20
2022-10-18T04:24:19.480Z,81.20
2022-10-18T04:26:46.294Z,81.20
2022-10-18T04:29:13.185Z,81.30
2022-10-18T04:31:39.992Z,81.30
2022-10-18T04:34:06.829Z,81.40
2022-10-18T04:36:33.639Z,81.60
2022-10-18T04:39:00.503Z,81.80
2022-10-18T04:41:27.342Z,81.90
2022-10-18T04:43:54.087Z,81.80
2022-10-18T04:46:20.873Z,81.90
2022-10-18T04:48:47.567Z,81.80
2022-10-18T04:51:14.527Z,81.70
2022-10-18T04:53:41.268Z,81.60
2022-10-18T04:56:08.697Z,81.60
2022-10-18T04:58:35.454Z,81.60
2022-10-18T05:01:06.555Z,81.50
2022-10-18T05:03:33.576Z,81.40
2022-10-18T05:06:02.784Z,81.30
2022-10-18T05:08:30.795Z,81.40
2022-10-18T05:10:57.780Z,81.40
2022-10-18T05:13:25.074Z,81.50
2022-10-18T05:15:52.047Z,81.50
2022-10-18T05:18:18.828Z,81.50
2022-10-18T05:20:46.271Z,81.50
2022-10-18T05:23:13.088Z,81.50
2022-10-18T05:25:41.522Z,81.50
2022-10-18T05:28:15.601Z,81.50
2022-10-18T05:30:54.184Z,81.50
2022-10-18T05:33:20.926Z,81.60
2022-10-18T05:35:47.715Z,81.60
2022-10-18T05:38:14.466Z,81.70
2022-10-18T05:40:41.183Z,81.60
2022-10-18T05:43:07.996Z,81.70
2022-10-18T05:45:34.726Z,81.80
2022-10-18T05:48:01.528Z,82.00
2022-10-18T05:50:29.288Z,82.00
2022-10-18T05:53:02.746Z,82.00
2022-10-18T05:55:39.100Z,81.90
2022-10-18T05:58:05.947Z,81.80
2022-10-18T06:00:32.793Z,81.90
2022-10-18T06:03:00.475Z,82.00
2022-10-18T06:05:27.911Z,82.00
2022-10-18T06:07:56.134Z,82.00
2022-10-18T06:10:23.149Z,82.10
2022-10-18T06:12:49.983Z,82.10
2022-10-18T06:15:16.859Z,82.10
2022-10-18T06:17:43.627Z,82.30
2022-10-18T06:20:10.618Z,82.40
2022-10-18T06:22:37.517Z,82.60
2022-10-18T06:25:04.504Z,82.70
2022-10-18T06:27:33.669Z,82.80
2022-10-18T06:30:00.807Z,82.80
2022-10-18T06:32:27.518Z,82.90
2022-10-18T06:34:54.286Z,82.90
2022-10-18T06:37:21.055Z,82.90
2022-10-18T06:39:47.823Z,82.90
2022-10-18T06:42:15.370Z,82.80
2022-10-18T06:44:43.850Z,82.80
2022-10-18T06:47:11.306Z,82.80
2022-10-18T06:49:38.045Z,82.90
2022-10-18T06:52:05.776Z,83.00
2022-10-18T06:54:32.785Z,83.10
2022-10-18T06:56:59.726Z,83.30
2022-10-18T06:59:28.981Z,83.30
2022-10-18T07:01:58.053Z,83.40
2022-10-18T07:04:27.742Z,83.40
2022-10-18T07:06:54.903Z,83.30
2022-10-18T07:09:21.622Z,83.50
2022-10-18T07:11:48.387Z,83.60
2022-10-18T07:14:16.516Z,83.80
2022-10-18T07:16:43.495Z,83.90
2022-10-18T07:19:10.430Z,83.80
2022-10-18T07:21:37.205Z,83.80
2022-10-18T07:24:04.104Z,83.70
2022-10-18T07:26:33.226Z,83.70
2022-10-18T07:29:07.525Z,83.80
2022-10-18T07:31:35.007Z,83.90
2022-10-18T07:34:07.451Z,83.90
2022-10-18T07:36:34.623Z,83.90
2022-10-18T07:39:01.357Z,84.00
2022-10-18T07:41:29.029Z,83.80
2022-10-18T07:43:55.780Z,83.70
2022-10-18T07:46:23.022Z,83.60
2022-10-18T07:48:50.330Z,83.40
2022-10-18T07:51:18.619Z,83.30
2022-10-18T07:53:45.810Z,83.20
2022-10-18T07:56:16.748Z,83.10
2022-10-18T07:58:52.318Z,83.30
2022-10-18T08:01:21.181Z,83.20
2022-10-18T08:03:48.104Z,83.10
2022-10-18T08:06:17.950Z,82.80
2022-10-18T08:08:45.817Z,82.40
2022-10-18T08:11:15.490Z,81.60
2022-10-18T08:13:42.853Z,81.10
2022-10-18T08:16:12.069Z,81.00
2022-10-18T08:18:38.882Z,81.70
2022-10-18T08:21:08.014Z,85.90
2022-10-18T08:23:35.709Z,91.30
2022-10-18T08:26:07.760Z,92.80
2022-10-18T08:28:38.036Z,92.10
2022-10-18T08:31:19.958Z,88.40
2022-10-18T08:33:47.306Z,82.30
2022-10-18T08:36:16.488Z,79.80
2022-10-18T08:38:43.754Z,75.50
2022-10-18T08:41:29.490Z,73.80
2022-10-18T08:43:56.246Z,71.20
2022-10-18T08:46:23.215Z,69.30
2022-10-18T08:48:54.059Z,66.30
2022-10-18T08:51:37.756Z,62.90
2022-10-18T08:54:11.980Z,59.50
2022-10-18T08:56:42.035Z,57.70
2022-10-18T08:59:11.358Z,55.70
2022-10-18T09:01:53.673Z,54.60
2022-10-18T09:04:45.807Z,52.00
2022-10-18T09:07:27.766Z,51.00
2022-10-18T09:10:42.229Z,51.20
2022-10-18T09:13:26.291Z,48.60
2022-10-18T09:16:02.180Z,47.40
2022-10-18T09:18:51.891Z,45.50
2022-10-18T09:21:35.755Z,44.30
2022-10-18T09:24:13.714Z,43.60
2022-10-18T09:26:49.238Z,42.70
2022-10-18T09:29:38.041Z,42.50
2022-10-18T09:32:19.707Z,42.00
2022-10-18T09:35:24.346Z,40.00
2022-10-18T09:37:55.809Z,39.50
2022-10-18T09:40:28.973Z,40.50
2022-10-18T09:43:01.591Z,39.30
2022-10-18T09:45:33.995Z,38.40
2022-10-18T09:48:03.839Z,38.00
2022-10-18T09:50:41.554Z,37.40
2022-10-18T09:53:12.997Z,36.70
2022-10-18T09:55:54.008Z,38.00
2022-10-18T09:58:22.785Z,36.40
2022-10-18T10:00:52.582Z,36.10
2022-10-18T10:03:19.437Z,36.40
2022-10-18T10:05:46.374Z,35.70
2022-10-18T10:08:13.285Z,34.90
2022-10-18T10:10:46.517Z,34.60
2022-10-18T10:13:26.125Z,34.20
2022-10-18T10:16:01.352Z,33.30
2022-10-18T10:18:38.973Z,33.60
2022-10-18T10:21:12.602Z,33.80
2022-10-18T10:23:46.642Z,33.30
2022-10-18T10:26:27.879Z,34.00
2022-10-18T10:28:54.830Z,33.40
2022-10-18T10:31:31.713Z,33.70
2022-10-18T10:34:12.316Z,33.40
2022-10-18T10:36:52.545Z,33.80
2022-10-18T10:39:21.482Z,33.40
2022-10-18T10:42:00.049Z,33.70
2022-10-18T10:44:35.799Z,32.90
2022-10-18T10:47:02.856Z,32.00
2022-10-18T10:49:40.776Z,32.50
2022-10-18T10:52:33.950Z,32.20
2022-10-18T10:55:30.403Z,31.10
2022-10-18T10:57:52.364Z,32.00
2022-10-18T11:00:43.370Z,32.20
2022-10-18T11:03:28.504Z,31.30
2022-10-18T11:05:58.026Z,30.80
2022-10-18T11:08:28.254Z,31.20
2022-10-18T11:11:22.179Z,31.10
2022-10-18T11:14:13.735Z,32.10
2022-10-18T11:17:07.888Z,31.00
2022-10-18T11:19:40.004Z,30.00
2022-10-18T11:22:14.411Z,30.50
2022-10-18T11:24:41.394Z,30.00
2022-10-18T11:27:20.488Z,28.70
2022-10-18T11:30:05.784Z,28.70
2022-10-18T11:32:35.804Z,28.80
2022-10-18T11:35:08.819Z,29.10
2022-10-18T11:37:48.756Z,29.00
2022-10-18T11:40:40.551Z,29.80
2022-10-18T11:43:20.355Z,29.60
2022-10-18T11:45:47.300Z,29.70
2022-10-18T11:48:35.383Z,29.40
2022-10-18T11:51:34.325Z,28.90
2022-10-18T11:54:46.453Z,28.30
2022-10-18T11:57:19.113Z,29.20
2022-10-18T12:00:07.052Z,29.00
2022-10-18T12:02:51.741Z,28.70
2022-10-18T12:05:23.494Z,28.50
2022-10-18T12:08:02.460Z,28.40
2022-10-18T12:10:44.322Z,28.20
2022-10-18T12:13:35.227Z,28.20
2022-10-18T12:16:05.265Z,29.30
2022-10-18T12:18:33.562Z,29.60
2022-10-18T12:21:01.888Z,28.80
2022-10-18T12:23:42.838Z,28.80
2022-10-18T12:26:11.228Z,28.30
2022-10-18T12:28:50.182Z,29.10
2022-10-18T12:31:39.890Z,30.50
2022-10-18T12:34:21.877Z,29.90
2022-10-18T12:37:20.637Z,29.40
2022-10-18T12:40:32.229Z,29.50
2022-10-18T12:42:59.113Z,29.30
2022-10-18T12:45:33.395Z,29.80
2022-10-18T12:48:02.692Z,29.90
2022-10-18T12:50:34.970Z,29.80
2022-10-18T12:53:12.291Z,30.20
2022-10-18T12:55:41.230Z,30.50
2022-10-18T12:58:13.679Z,30.00
2022-10-18T13:00:43.099Z,29.90
2022-10-18T13:03:10.244Z,30.10
2022-10-18T13:05:54.981Z,30.30
2022-10-18T13:08:31.627Z,29.70
2022-10-18T13:11:01.467Z,29.90
2022-10-18T13:13:41.709Z,30.40
2022-10-18T13:16:12.609Z,29.60
2022-10-18T13:18:48.438Z,30.00
2022-10-18T13:21:31.870Z,30.70
2022-10-18T13:24:26.668Z,30.90
2022-10-18T13:27:04.129Z,31.10
2022-10-18T13:30:01.018Z,30.60
2022-10-18T13:32:39.479Z,29.90
2022-10-18T13:35:38.423Z,31.00
2022-10-18T13:38:31.454Z,31.30
2022-10-18T13:41:18.463Z,31.50
2022-10-18T13:43:54.182Z,30.20
2022-10-18T13:46:22.333Z,30.40
2022-10-18T13:48:54.701Z,30.90
2022-10-18T13:51:46.292Z,30.90
2022-10-18T13:54:28.398Z,30.80
2022-10-18T13:57:01.234Z,30.10
2022-10-18T13:59:55.735Z,30.70
2022-10-18T14:02:58.465Z,30.80
2022-10-18T14:05:50.629Z,30.40
2022-10-18T14:08:42.454Z,29.90
2022-10-18T14:11:30.619Z,30.20
2022-10-18T14:14:00.354Z,29.80
2022-10-18T14:16:48.970Z,30.70
2022-10-18T14:19:41.795Z,30.70
2022-10-18T14:22:19.659Z,30.40
2022-10-18T14:24:54.109Z,30.90
2022-10-18T14:27:23.169Z,30.40
2022-10-18T14:30:06.519Z,29.80
2022-10-18T14:32:34.095Z,30.30
2022-10-18T14:35:30.623Z,31.10
2022-10-18T14:37:53.808Z,30.80
2022-10-18T14:40:36.343Z,31.10
2022-10-18T14:43:10.433Z,31.30
2022-10-18T14:45:37.197Z,31.70
2022-10-18T14:48:14.749Z,31.90
2022-10-18T14:50:43.792Z,32.20
2022-10-18T14:53:17.875Z,32.50
2022-10-18T14:56:06.528Z,32.50
2022-10-18T14:58:42.624Z,32.70
2022-10-18T15:01:18.208Z,32.70
2022-10-18T15:03:45.631Z,33.20
2022-10-18T15:06:18.783Z,33.30
2022-10-18T15:08:49.134Z,32.70
2022-10-18T15:11:16.756Z,33.20
2022-10-18T15:13:57.358Z,33.40
2022-10-18T15:16:27.977Z,33.50
2022-10-18T15:19:24.479Z,33.70
2022-10-18T15:22:07.962Z,33.50
2022-10-18T15:24:42.709Z,34.00
2022-10-18T15:27:31.262Z,34.00
2022-10-18T15:30:00.675Z,34.20
2022-10-18T15:32:30.139Z,34.30
2022-10-18T15:35:09.998Z,34.60
2022-10-18T15:37:44.252Z,35.10
2022-10-18T15:40:23.278Z,35.50
2022-10-18T15:42:52.829Z,35.90
2022-10-18T15:45:31.621Z,36.20
2022-10-18T15:48:09.288Z,36.30
2022-10-18T15:50:45.215Z,36.50
2022-10-18T15:53:21.240Z,37.20
2022-10-18T15:55:49.847Z,38.30
2022-10-18T15:58:25.870Z,39.20
2022-10-18T16:00:57.564Z,40.00
2022-10-18T16:03:25.054Z,40.60
2022-10-18T16:06:05.015Z,41.30
2022-10-18T16:08:36.954Z,41.90
2022-10-18T16:11:03.792Z,42.40
2022-10-18T16:13:30.564Z,43.00
2022-10-18T16:15:59.445Z,43.60
2022-10-18T16:18:26.903Z,44.10
2022-10-18T16:20:53.732Z,44.70
2022-10-18T16:23:24.654Z,45.20
2022-10-18T16:25:52.258Z,45.80
2022-10-18T16:28:23.558Z,46.60
2022-10-18T16:31:02.090Z,47.00
2022-10-18T16:33:29.049Z,47.50
2022-10-18T16:35:56.546Z,47.90
2022-10-18T16:38:35.558Z,48.40
2022-10-18T16:41:07.578Z,49.20
2022-10-18T16:43:35.329Z,49.50
2022-10-18T16:46:03.137Z,49.90
2022-10-18T16:48:30.589Z,50.20
2022-10-18T16:50:58.467Z,50.50
2022-10-18T16:53:26.309Z,51.00
2022-10-18T16:56:01.231Z,51.30
2022-10-18T16:58:30.548Z,51.80
2022-10-18T17:00:58.916Z,52.00
2022-10-18T17:03:26.440Z,52.30
2022-10-18T17:05:53.883Z,52.50
2022-10-18T17:08:23.967Z,52.80
2022-10-18T17:10:53.950Z,53.10
2022-10-18T17:13:22.088Z,53.40
2022-10-18T17:15:49.904Z,53.70
2022-10-18T17:18:21.630Z,53.90
2022-10-18T17:20:49.525Z,54.30
2022-10-18T17:23:16.781Z,54.70
2022-10-18T17:25:57.450Z,54.90
2022-10-18T17:28:31.630Z,55.20
2022-10-18T17:30:58.480Z,55.40
2022-10-18T17:33:25.272Z,55.70
2022-10-18T17:35:52.023Z,56.00
2022-10-18T17:38:18.837Z,56.20
2022-10-18T17:40:45.582Z,56.30
2022-10-18T17:43:13.715Z,56.40
2022-10-18T17:45:54.149Z,56.60
2022-10-18T17:48:22.160Z,56.80
2022-10-18T17:50:49.239Z,57.00
2022-10-18T17:53:18.275Z,57.20
2022-10-18T17:55:45.075Z,57.40
2022-10-18T17:58:11.821Z,57.60
2022-10-18T18:00:38.593Z,57.70
2022-10-18T18:03:05.504Z,58.00
2022-10-18T18:05:34.152Z,58.10
2022-10-18T18:08:03.990Z,58.20
2022-10-18T18:10:33.380Z,58.50
2022-10-18T18:13:00.619Z,59.00
2022-10-18T18:15:27.402Z,59.30
2022-10-18T18:17:58.029Z,59.30
2022-10-18T18:20:26.214Z,59.30
2022-10-18T18:22:53.104Z,59.50
2022-10-18T18:25:20.103Z,59.60
2022-10-18T18:27:46.997Z,59.70
2022-10-18T18:30:15.289Z,59.80
2022-10-18T18:32:42.077Z,60.00
2022-10-18T18:35:08.972Z,60.00
2022-10-18T18:37:35.861Z,60.00
2022-10-18T18:40:02.998Z,60.00
2022-10-18T18:42:29.939Z,60.10
2022-10-18T18:44:56.863Z,60.30
2022-10-18T18:47:23.748Z,60.50
2022-10-18T18:49:51.595Z,60.60
2022-10-18T18:52:18.603Z,60.80
2022-10-18T18:54:45.548Z,60.90
2022-10-18T18:57:12.425Z,60.90
2022-10-18T18:59:39.276Z,60.90
2022-10-18T19:02:06.403Z,61.00
2022-10-18T19:04:34.938Z,61.10
2022-10-18T19:07:02.291Z,61.30
2022-10-18T19:09:29.233Z,61.40
2022-10-18T19:11:56.935Z,61.60
2022-10-18T19:14:25.947Z,61.60
2022-10-18T19:16:54.677Z,61.80
2022-10-18T19:19:23.482Z,61.90
2022-10-18T19:21:55.771Z,62.00
2022-10-18T19:24:24.048Z,62.10
2022-10-18T19:26:56.281Z,62.40
2022-10-18T19:29:33.493Z,62.70
2022-10-18T19:32:02.283Z,62.70
2022-10-18T19:34:30.774Z,62.70
2022-10-18T19:36:57.867Z,62.70
2022-10-18T19:39:35.603Z,62.90
2022-10-18T19:42:09.978Z,63.10
2022-10-18T19:44:37.571Z,63.20
2022-10-18T19:47:09.889Z,63.20
2022-10-18T19:49:38.117Z,63.10
2022-10-18T19:52:05.111Z,63.10
2022-10-18T19:54:32.006Z,63.10
2022-10-18T19:56:58.748Z,63.20
2022-10-18T19:59:25.661Z,63.30
2022-10-18T20:01:52.610Z,63.40
2022-10-18T20:04:19.499Z,63.50
2022-10-18T20:06:46.425Z,63.60
2022-10-18T20:09:17.687Z,63.70
2022-10-18T20:11:47.380Z,63.70
2022-10-18T20:14:14.146Z,63.80
2022-10-18T20:16:40.937Z,63.80
2022-10-18T20:19:08.149Z,64.00
2022-10-18T20:21:35.928Z,64.30
2022-10-18T20:24:04.624Z,64.40
2022-10-18T20:26:32.287Z,64.60
2022-10-18T20:28:59.946Z,64.60
2022-10-18T20:31:37.176Z,64.70
2022-10-18T20:34:06.917Z,64.90
2022-10-18T20:36:34.676Z,64.90
2022-10-18T20:39:02.134Z,64.90
2022-10-18T20:41:34.648Z,64.90
2022-10-18T20:44:10.817Z,65.10
2022-10-18T20:46:39.105Z,65.10
2022-10-18T20:49:07.887Z,65.10
2022-10-18T20:51:35.410Z,65.10
2022-10-18T20:56:34.162Z,65.30
2022-10-18T20:59:01.451Z,65.30
2022-10-18T21:01:30.853Z,65.40
2022-10-18T21:04:00.602Z,65.50
2022-10-18T21:06:32.996Z,65.50
2022-10-18T21:09:01.948Z,65.50
2022-10-18T21:11:30.809Z,65.50
2022-10-18T21:14:02.533Z,65.60
2022-10-18T21:16:30.351Z,65.70
2022-10-18T21:19:01.412Z,65.70
2022-10-18T21:21:28.136Z,65.80
2022-10-18T21:23:55.288Z,65.80
2022-10-18T21:26:26.845Z,66.00
2022-10-18T21:28:56.518Z,66.10
2022-10-18T21:31:26.024Z,66.20
2022-10-18T21:33:54.853Z,66.20
2022-10-18T21:36:22.233Z,66.30
2022-10-18T21:38:49.567Z,66.50
2022-10-18T21:41:18.696Z,66.60
2022-10-18T21:43:47.959Z,66.70
2022-10-18T21:46:16.419Z,66.80
2022-10-18T21:48:49.526Z,67.00
2022-10-18T21:51:18.510Z,67.10
2022-10-18T21:53:47.195Z,67.00
2022-10-18T21:56:19.867Z,67.10
2022-10-18T21:58:47.102Z,67.10
2022-10-18T22:01:17.219Z,67.10
2022-10-18T22:03:45.324Z,67.40
2022-10-18T22:06:14.656Z,67.30
2022-10-18T22:08:43.273Z,67.40
2022-10-18T22:11:11.586Z,67.50
2022-10-18T22:13:38.683Z,67.60
2022-10-18T22:16:07.011Z,67.60
2022-10-18T22:18:34.589Z,67.50
2022-10-18T22:21:04.467Z,67.60
2022-10-18T22:23:33.148Z,67.70
2022-10-18T22:26:11.315Z,67.80
2022-10-18T22:28:39.920Z,68.10
2022-10-18T22:31:06.879Z,68.10
2022-10-18T22:33:33.814Z,68.20
2022-10-18T22:36:00.676Z,68.20
2022-10-18T22:38:27.486Z,68.30
2022-10-18T22:40:54.231Z,68.40
2022-10-18T22:43:21.024Z,68.40
2022-10-18T22:45:47.898Z,68.40
2022-10-18T22:48:14.707Z,68.50
2022-10-18T22:50:41.483Z,68.60
2022-10-18T22:53:08.175Z,68.60
2022-10-18T22:55:34.940Z,68.70
2022-10-18T22:58:01.790Z,68.70
2022-10-18T23:00:28.611Z,68.70
2022-10-18T23:02:55.446Z,68.80
2022-10-18T23:05:22.216Z,68.90
2022-10-18T23:07:49.342Z,68.90
2022-10-18T23:10:16.595Z,68.90
2022-10-18T23:12:44.213Z,69.10
2022-10-18T23:15:11.745Z,69.00
2022-10-18T23:17:38.953Z,69.00
2022-10-18T23:20:06.338Z,69.10
2022-10-18T23:22:33.315Z,69.20
2022-10-18T23:25:00.420Z,69.20
2022-10-18T23:27:29.250Z,69.20
2022-10-18T23:29:56.183Z,69.40
2022-10-18T23:32:22.889Z,69.60
2022-10-18T23:34:49.677Z,69.60
2022-10-18T23:37:16.444Z,69.60
2022-10-18T23:39:43.233Z,69.60
2022-10-18T23:42:10.114Z,69.70
2022-10-18T23:44:36.877Z,69.60
2022-10-18T23:47:03.723Z,69.70
2022-10-18T23:49:30.559Z,69.90
2022-10-18T23:51:57.392Z,69.90
2022-10-18T23:54:24.179Z,69.90
2022-10-18T23:56:51.035Z,69.90
2022-10-18T23:59:17.908Z,69.90
